Aberhosan, United Kingdom

6:52 AM GMT on November 28, 2014 (GMT +0000)
Aberllefenni - Corris | Change Station
CLOSE
Current Station
Personal Weather Station
Location: Machynlleth, POWYS
Elevation: 367 ft
Nearby Weather Stations

Elev 367 ft 52.67 °N, 3.82 °W | Updated 20 seconds ago

Mostly Cloudy
Mostly Cloudy
48.0 °F
Feels Like 47 °F
N
3.5
Wind Variable Wind from North
Gusts 3.5 mph

Today
High -- | Low -- °F
--% Chance of Precip.
Yesterday
High -- | Low -- °F
Precip. -- in
7:58 AM 4:06 PM
Waxing Crescent, 37% visible
Pressure 29.62 in
Visibility 2.8 miles
Clouds Mostly Cloudy 1000 ft
Windchill 47 °F
Dew Point 47 °F
Humidity 97%
Rainfall 0.00 in
Snow Depth Not available.
UV 0 out of 12
Pollen Not available.
Air Quality Not available.
Flu Activity Not available.
METAR EGNR 280620Z 04005KT 4500 BR BKN010 09/08 Q1003

More Conditions Fewer Conditions

Pressure 29.62 in
Visibility 2.8 miles
Clouds Mostly Cloudy 1000 ft
Windchill 47 °F
Dew Point 47 °F
Humidity 97%
Rainfall 0.00 in
Snow Depth Not available.
UV 0 out of 12
Pollen Not available.
Air Quality Not available.
Flu Activity Not available.
METAR EGNR 280620Z 04005KT 4500 BR BKN010 09/08 Q1003

More Conditions Fewer Conditions

10-Day Weather Forecast

Almanac

Astronomy

Nov. 28, 2014 Rise Set
Actual Time
Civil Twilight
Nautical Twilight
Astronomical Twilight
Moon
Length of Visible Light
Length of Day
Tomorrow will be .
, % of the Moon is Illuminated

Today's Extremes

Country Highs Country Lows

Community

WunderPhotos

Upload Photos

1,774,194 photos uploaded!

WunderBlogs® & News

Nearby

Air Quality

  Air Quality AQ Index Pollutant
Not available.

Snow Depth

Station Depth Elevation

Earthquake Activity

City Distance Mag. Time & Date
Minimum magnitude displayed is 2.5.

Coastal Water Temperatures

Place Temperature

Nearby Weather Stations